createdAt,value
2019-05-16T00:00:13.677Z,8.7
2019-05-16T00:01:23.073Z,8.7
2019-05-16T00:02:32.574Z,8.7
2019-05-16T00:03:41.808Z,8.6
2019-05-16T00:04:51.104Z,8.6
2019-05-16T00:06:00.470Z,8.6
2019-05-16T00:07:09.983Z,8.6
2019-05-16T00:08:19.229Z,8.7
2019-05-16T00:09:28.671Z,8.7
2019-05-16T00:10:38.378Z,8.6
2019-05-16T00:11:48.740Z,8.6
2019-05-16T00:12:59.211Z,8.6
2019-05-16T00:14:08.178Z,8.6
2019-05-16T00:15:15.383Z,8.6
2019-05-16T00:16:25.946Z,8.5
2019-05-16T00:17:35.338Z,8.5
2019-05-16T00:18:44.740Z,8.5
2019-05-16T00:19:54.029Z,8.4
2019-05-16T00:21:03.401Z,8.4
2019-05-16T00:22:12.728Z,8.4
2019-05-16T00:23:22.208Z,8.3
2019-05-16T00:24:31.444Z,8.3
2019-05-16T00:25:40.958Z,8.4
2019-05-16T00:26:50.294Z,8.3
2019-05-16T00:27:59.562Z,8.3
2019-05-16T00:29:08.901Z,8.2
2019-05-16T00:30:18.431Z,8.2
2019-05-16T00:31:28.687Z,8.2
2019-05-16T00:32:38.943Z,8.2
2019-05-16T00:33:48.501Z,8.2
2019-05-16T00:34:55.753Z,8.3
2019-05-16T00:36:05.961Z,8.3
2019-05-16T00:37:14.448Z,8.2
2019-05-16T00:39:33.104Z,8.2
2019-05-16T00:40:42.463Z,8.2
2019-05-16T00:41:51.851Z,8.2
2019-05-16T00:43:01.199Z,8.2
2019-05-16T00:44:10.569Z,8.2
2019-05-16T00:45:20.092Z,8.2
2019-05-16T00:46:29.252Z,8.1
2019-05-16T00:47:39.096Z,8.1
2019-05-16T00:48:48.684Z,8.1
2019-05-16T00:49:58.170Z,8.1
2019-05-16T00:51:07.796Z,8.1
2019-05-16T00:52:18.230Z,8
2019-05-16T00:53:25.391Z,8.1
2019-05-16T00:54:35.725Z,8.1
2019-05-16T00:55:44.171Z,8.1
2019-05-16T00:56:54.131Z,8.1
2019-05-16T00:58:02.837Z,8.1
2019-05-16T00:59:12.187Z,8.1
2019-05-16T01:01:30.905Z,8
2019-05-16T01:02:40.221Z,8
2019-05-16T01:03:49.736Z,8
2019-05-16T01:04:59.078Z,8
2019-05-16T01:06:18.542Z,8
2019-05-16T01:07:18.837Z,8
2019-05-16T01:08:28.405Z,8
2019-05-16T01:09:38.537Z,8
2019-05-16T01:10:48.407Z,8
2019-05-16T01:11:57.912Z,8
2019-05-16T01:13:07.833Z,8
2019-05-16T01:14:14.962Z,8
2019-05-16T01:15:24.298Z,7.9
2019-05-16T01:16:33.703Z,8
2019-05-16T01:17:43.025Z,7.9
2019-05-16T01:18:52.369Z,7.9
2019-05-16T01:20:01.763Z,7.9
2019-05-16T01:21:11.229Z,7.9
2019-05-16T01:22:20.430Z,7.9
2019-05-16T01:23:30.060Z,8
2019-05-16T01:24:41.454Z,7.9
2019-05-16T01:25:48.662Z,7.9
2019-05-16T01:26:57.884Z,7.9
2019-05-16T01:28:08.785Z,7.8
2019-05-16T01:29:18.707Z,7.9
2019-05-16T01:30:25.869Z,7.9
2019-05-16T01:31:35.257Z,7.9
2019-05-16T01:32:44.698Z,7.9
2019-05-16T01:33:53.960Z,7.9
2019-05-16T01:35:03.317Z,7.8
2019-05-16T01:36:12.639Z,7.9
2019-05-16T01:37:22.018Z,7.9
2019-05-16T01:38:31.399Z,7.9
2019-05-16T01:39:40.716Z,7.8
2019-05-16T01:40:50.017Z,7.8
2019-05-16T01:41:59.589Z,7.9
2019-05-16T01:43:08.758Z,7.9
2019-05-16T01:44:18.395Z,7.9
2019-05-16T01:45:27.745Z,7.9
2019-05-16T01:46:38.970Z,7.9
2019-05-16T01:47:47.821Z,7.8
2019-05-16T01:48:57.618Z,7.8
2019-05-16T01:50:04.803Z,7.8
2019-05-16T01:51:14.268Z,7.9
2019-05-16T01:52:23.522Z,7.9
2019-05-16T01:53:32.861Z,7.8
2019-05-16T01:54:42.282Z,7.8
2019-05-16T01:55:51.707Z,7.8
2019-05-16T01:57:00.918Z,7.8
2019-05-16T01:58:10.283Z,7.8
2019-05-16T01:59:19.609Z,7.9
2019-05-16T02:00:36.187Z,7.9
2019-05-16T02:01:38.295Z,8
2019-05-16T02:02:48.735Z,7.9
2019-05-16T02:03:58.663Z,7.9
2019-05-16T02:05:08.235Z,7.9
2019-05-16T02:06:18.161Z,7.9
2019-05-16T02:07:25.063Z,7.9
2019-05-16T02:08:34.400Z,7.9
2019-05-16T02:09:43.744Z,7.9
2019-05-16T02:10:53.198Z,7.9
2019-05-16T02:12:02.447Z,7.9
2019-05-16T02:13:11.978Z,7.9
2019-05-16T02:14:21.320Z,7.9
2019-05-16T02:15:30.671Z,8
2019-05-16T02:16:40.015Z,8
2019-05-16T02:17:49.367Z,8
2019-05-16T02:18:58.926Z,7.9
2019-05-16T02:20:08.600Z,8
2019-05-16T02:21:18.157Z,8.1
2019-05-16T02:22:28.495Z,8
2019-05-16T02:23:38.009Z,8
2019-05-16T02:24:47.479Z,8
2019-05-16T02:25:54.839Z,7.9
2019-05-16T02:27:04.143Z,8
2019-05-16T02:28:13.494Z,8
2019-05-16T02:29:22.896Z,8
2019-05-16T02:30:32.219Z,8.1
2019-05-16T02:31:42.264Z,8
2019-05-16T02:32:52.153Z,8
2019-05-16T02:34:01.104Z,8
2019-05-16T02:36:21.547Z,8
2019-05-16T02:37:29.718Z,8
2019-05-16T02:38:37.754Z,8.1
2019-05-16T02:39:47.022Z,8
2019-05-16T02:40:56.460Z,8.1
2019-05-16T02:43:15.022Z,8
2019-05-16T02:44:24.989Z,8
2019-05-16T02:45:33.770Z,7.9
2019-05-16T02:46:43.218Z,8
2019-05-16T02:47:52.421Z,8
2019-05-16T02:49:01.849Z,8
2019-05-16T02:50:12.123Z,8
2019-05-16T02:51:21.145Z,8
2019-05-16T02:52:31.679Z,7.9
2019-05-16T02:53:41.521Z,7.9
2019-05-16T02:54:51.713Z,8
2019-05-16T02:56:01.138Z,8
2019-05-16T02:57:10.839Z,8
2019-05-16T02:58:16.563Z,8
2019-05-16T02:59:25.921Z,8
2019-05-16T03:00:35.371Z,7.9
2019-05-16T03:01:44.605Z,7.9
2019-05-16T03:02:53.948Z,8
2019-05-16T03:04:03.307Z,7.9
2019-05-16T03:05:12.930Z,7.9
2019-05-16T03:06:22.483Z,8
2019-05-16T03:07:37.394Z,7.9
2019-05-16T03:08:41.281Z,7.9
2019-05-16T03:09:51.347Z,7.9
2019-05-16T03:11:00.985Z,7.9
2019-05-16T03:12:10.684Z,7.9
2019-05-16T03:13:18.077Z,8
2019-05-16T03:14:27.467Z,8
2019-05-16T03:15:36.797Z,7.9
2019-05-16T03:16:46.131Z,7.9
2019-05-16T03:17:58.970Z,8
2019-05-16T03:19:04.901Z,7.9
2019-05-16T03:20:14.165Z,7.9
2019-05-16T03:21:23.522Z,7.9
2019-05-16T03:22:32.868Z,8
2019-05-16T03:23:42.375Z,8
2019-05-16T03:24:51.700Z,7.9
2019-05-16T03:26:01.186Z,7.9
2019-05-16T03:27:10.803Z,7.9
2019-05-16T03:28:22.099Z,7.9
2019-05-16T03:29:30.830Z,7.9
2019-05-16T03:30:43.747Z,7.9
2019-05-16T03:31:47.646Z,7.9
2019-05-16T03:32:57.047Z,7.9
2019-05-16T03:34:07.684Z,7.9
2019-05-16T03:35:16.595Z,8
2019-05-16T03:36:25.753Z,8
2019-05-16T03:37:49.846Z,8
2019-05-16T03:38:43.754Z,8
2019-05-16T03:39:53.074Z,8.1
2019-05-16T03:41:02.459Z,8.1
2019-05-16T03:42:12.665Z,8
2019-05-16T03:43:21.720Z,8
2019-05-16T03:44:31.665Z,8
2019-05-16T03:45:41.627Z,8
2019-05-16T03:46:51.796Z,8
2019-05-16T03:48:02.240Z,8
2019-05-16T03:49:11.031Z,8
2019-05-16T03:50:21.535Z,8
2019-05-16T03:51:30.665Z,8
2019-05-16T03:52:40.065Z,8
2019-05-16T03:53:46.466Z,8
2019-05-16T03:54:55.759Z,8
2019-05-16T03:56:05.078Z,8
2019-05-16T03:57:14.412Z,8
2019-05-16T03:58:23.761Z,8
2019-05-16T03:59:33.160Z,8
2019-05-16T04:00:45.672Z,8
2019-05-16T04:01:51.814Z,8
2019-05-16T04:03:01.405Z,8
2019-05-16T04:04:11.631Z,8.1
2019-05-16T04:05:21.090Z,8
2019-05-16T04:06:31.088Z,8.1
2019-05-16T04:07:41.310Z,8.1
2019-05-16T04:08:50.951Z,8.1
2019-05-16T04:09:57.259Z,8.1
2019-05-16T04:11:06.698Z,8.1
2019-05-16T04:12:16.092Z,8.2
2019-05-16T04:13:25.347Z,8.1
2019-05-16T04:14:34.653Z,8.1
2019-05-16T04:15:44.048Z,8.2
2019-05-16T04:16:53.461Z,8.2
2019-05-16T04:18:02.870Z,8.1
2019-05-16T04:19:12.039Z,8.1
2019-05-16T04:20:21.665Z,8.2
2019-05-16T04:21:32.228Z,8.2
2019-05-16T04:22:40.778Z,8.2
2019-05-16T04:23:50.511Z,8.2
2019-05-16T04:25:01.452Z,8.3
2019-05-16T04:26:11.108Z,8.3
2019-05-16T04:27:21.303Z,8.3
2019-05-16T04:28:30.902Z,8.2
2019-05-16T04:29:40.551Z,8.3
2019-05-16T04:30:46.595Z,8.3
2019-05-16T04:31:55.945Z,8.3
2019-05-16T04:33:05.294Z,8.3
2019-05-16T04:34:14.664Z,8.3
2019-05-16T04:35:24.036Z,8.2
2019-05-16T04:36:33.392Z,8.2
2019-05-16T04:37:43.029Z,8.2
2019-05-16T04:38:52.101Z,8.2
2019-05-16T04:40:01.783Z,8.2
2019-05-16T04:41:11.621Z,8.2
2019-05-16T04:42:21.399Z,8.2
2019-05-16T04:43:31.499Z,8.2
2019-05-16T04:44:41.592Z,8.3
2019-05-16T04:45:51.671Z,8.3
2019-05-16T04:46:57.627Z,8.3
2019-05-16T04:48:07.176Z,8.3
2019-05-16T04:50:25.636Z,8.3
2019-05-16T04:51:35.007Z,8.3
2019-05-16T04:52:44.348Z,8.3
2019-05-16T04:53:53.699Z,8.3
2019-05-16T04:55:03.272Z,8.3
2019-05-16T04:56:12.429Z,8.2
2019-05-16T04:57:21.889Z,8.3
2019-05-16T04:58:31.777Z,8.3
2019-05-16T04:59:41.689Z,8.3
2019-05-16T05:00:51.647Z,8.3
2019-05-16T05:02:01.901Z,8.3
2019-05-16T05:03:11.699Z,8.3
2019-05-16T05:04:20.888Z,8.3
2019-05-16T05:05:27.291Z,8.3
2019-05-16T05:06:36.830Z,8.3
2019-05-16T05:07:45.990Z,8.3
2019-05-16T05:08:58.675Z,8.4
2019-05-16T05:10:04.941Z,8.3
2019-05-16T05:11:14.094Z,8.3
2019-05-16T05:12:23.431Z,8.4
2019-05-16T05:13:32.788Z,8.4
2019-05-16T05:14:42.171Z,8.4
2019-05-16T05:15:51.597Z,8.3
2019-05-16T05:17:01.514Z,8.4
2019-05-16T05:18:10.339Z,8.4
2019-05-16T05:19:20.294Z,8.4
2019-05-16T05:20:30.370Z,8.4
2019-05-16T05:21:40.778Z,8.4
2019-05-16T05:22:49.815Z,8.5
2019-05-16T05:23:57.008Z,8.5
2019-05-16T05:25:06.459Z,8.5
2019-05-16T05:26:15.913Z,8.5
2019-05-16T05:27:25.102Z,8.5
2019-05-16T05:28:34.470Z,8.5
2019-05-16T05:29:43.824Z,8.5
2019-05-16T05:30:53.193Z,8.5
2019-05-16T05:32:04.670Z,8.5
2019-05-16T05:33:11.982Z,8.5
2019-05-16T05:34:21.302Z,8.6
2019-05-16T05:35:31.133Z,8.5
2019-05-16T05:36:40.786Z,8.5
2019-05-16T05:37:50.711Z,8.5
2019-05-16T05:39:08.792Z,8.5
2019-05-16T05:40:10.545Z,8.5
2019-05-16T05:41:19.748Z,8.5
2019-05-16T05:42:26.821Z,8.5
2019-05-16T05:43:36.181Z,8.5
2019-05-16T05:44:45.548Z,8.5
2019-05-16T05:45:54.941Z,8.4
2019-05-16T05:47:04.550Z,8.5
2019-05-16T05:48:13.951Z,8.5
2019-05-16T05:49:23.250Z,8.5
2019-05-16T05:50:32.630Z,8.5
2019-05-16T05:51:42.120Z,8.6
2019-05-16T05:52:51.384Z,8.6
2019-05-16T05:54:00.723Z,8.5
2019-05-16T05:55:10.924Z,8.5
2019-05-16T05:56:19.791Z,8.5
2019-05-16T05:57:29.988Z,8.5
2019-05-16T05:58:40.573Z,8.6
2019-05-16T05:59:49.702Z,8.5
2019-05-16T06:00:56.915Z,8.5
2019-05-16T06:02:06.267Z,8.6
2019-05-16T06:03:16.090Z,8.6
2019-05-16T06:04:25.056Z,8.7
2019-05-16T06:05:34.397Z,8.7
2019-05-16T06:06:45.326Z,8.6
2019-05-16T06:07:53.290Z,8.7
2019-05-16T06:09:02.485Z,8.7
2019-05-16T06:10:11.887Z,8.7
2019-05-16T06:11:21.316Z,8.7
2019-05-16T06:12:30.749Z,8.7
2019-05-16T06:13:40.528Z,8.8
2019-05-16T06:14:50.434Z,8.8
2019-05-16T06:16:00.154Z,8.8
2019-05-16T06:17:10.862Z,8.8
2019-05-16T06:18:19.646Z,8.8
2019-05-16T06:19:26.820Z,8.8
2019-05-16T06:20:36.166Z,8.8
2019-05-16T06:21:45.588Z,8.8
2019-05-16T06:22:54.904Z,8.8
2019-05-16T06:24:04.349Z,8.9
2019-05-16T06:25:14.466Z,8.8
2019-05-16T06:26:23.039Z,8.8
2019-05-16T06:27:32.440Z,8.8
2019-05-16T06:28:41.782Z,8.9
2019-05-16T06:29:51.135Z,8.8
2019-05-16T06:31:01.755Z,8.9
2019-05-16T06:32:10.333Z,8.9
2019-05-16T06:33:19.910Z,8.9
2019-05-16T06:34:30.134Z,8.9
2019-05-16T06:35:40.075Z,8.9
2019-05-16T06:36:47.394Z,8.9
2019-05-16T06:37:56.772Z,8.8
2019-05-16T06:39:06.120Z,8.9
2019-05-16T06:40:15.509Z,8.9
2019-05-16T06:41:24.985Z,8.9
2019-05-16T06:43:43.652Z,9
2019-05-16T06:44:53.062Z,9
2019-05-16T06:46:02.497Z,9.1
2019-05-16T06:47:18.873Z,9.1
2019-05-16T06:48:21.594Z,9.1
2019-05-16T06:49:30.635Z,9.1
2019-05-16T06:50:40.239Z,9
2019-05-16T06:51:51.476Z,8.9
2019-05-16T06:53:00.935Z,9
2019-05-16T06:54:10.067Z,9
2019-05-16T06:56:26.837Z,9.1
2019-05-16T06:57:36.272Z,9.1
2019-05-16T06:58:48.382Z,9.1
2019-05-16T06:59:55.031Z,9
2019-05-16T07:01:04.521Z,9
2019-05-16T07:03:23.131Z,9
2019-05-16T07:04:32.431Z,9.1
2019-05-16T07:05:41.898Z,9.1
2019-05-16T07:06:55.839Z,9.1
2019-05-16T07:08:00.580Z,9.1
2019-05-16T07:09:10.492Z,9
2019-05-16T07:10:20.317Z,9
2019-05-16T07:11:30.578Z,9
2019-05-16T07:12:38.119Z,9.1
2019-05-16T07:13:51.669Z,9.1
2019-05-16T07:14:56.891Z,9.1
2019-05-16T07:16:06.237Z,9.1
2019-05-16T07:17:15.645Z,8.9
2019-05-16T07:18:25.019Z,9
2019-05-16T07:19:35.496Z,9
2019-05-16T07:20:43.841Z,9
2019-05-16T07:21:53.529Z,9
2019-05-16T07:24:12.079Z,9.1
2019-05-16T07:25:26.146Z,9.1
2019-05-16T07:26:30.934Z,9.2
2019-05-16T07:27:40.325Z,9.2
2019-05-16T07:28:51.482Z,9.1
2019-05-16T07:30:01.033Z,9.1
2019-05-16T07:31:15.554Z,9.1
2019-05-16T07:32:19.688Z,9.1
2019-05-16T07:33:27.187Z,9.1
2019-05-16T07:34:36.514Z,9.2
2019-05-16T07:35:45.726Z,9.1
2019-05-16T07:36:55.112Z,9.1
2019-05-16T07:38:04.482Z,9.1
2019-05-16T07:39:13.888Z,9.1
2019-05-16T07:40:26.396Z,9.3
2019-05-16T07:41:32.687Z,9.4
2019-05-16T07:42:42.014Z,9.3
2019-05-16T07:43:51.772Z,9.2
2019-05-16T07:45:01.093Z,9.1
2019-05-16T07:46:11.195Z,9.3
2019-05-16T07:47:20.341Z,9.2
2019-05-16T07:48:31.533Z,9.3
2019-05-16T07:49:40.590Z,9.1
2019-05-16T07:50:50.004Z,9.2
2019-05-16T07:51:57.333Z,9.3
2019-05-16T07:53:06.813Z,9.3
2019-05-16T07:54:16.303Z,9.3
2019-05-16T07:55:27.976Z,9.3
2019-05-16T07:56:34.894Z,9.2
2019-05-16T07:57:44.306Z,9.1
2019-05-16T07:58:53.675Z,9.2
2019-05-16T08:01:13.041Z,9.3
2019-05-16T08:02:21.863Z,9.3
2019-05-16T08:03:31.350Z,9.3
2019-05-16T08:04:40.659Z,9.4
2019-05-16T08:05:51.232Z,9.4
2019-05-16T08:07:00.591Z,9.3
2019-05-16T08:08:10.500Z,9.3
2019-05-16T08:09:20.495Z,9.3
2019-05-16T08:10:37.741Z,9.3
2019-05-16T08:11:36.958Z,9.2
2019-05-16T08:12:46.349Z,9.3
2019-05-16T08:13:55.795Z,9.4
2019-05-16T08:15:05.234Z,9.4
2019-05-16T08:16:14.685Z,9.3
2019-05-16T08:17:24.054Z,9.4
2019-05-16T08:18:33.196Z,9.4
2019-05-16T08:19:42.586Z,9.5
2019-05-16T08:20:52.658Z,9.4
2019-05-16T08:22:01.570Z,9.3
2019-05-16T08:23:11.155Z,9.3
2019-05-16T08:24:20.566Z,9.2
2019-05-16T08:25:31.527Z,9.3
2019-05-16T08:26:42.034Z,9.2
2019-05-16T08:27:51.677Z,9.3
2019-05-16T08:28:57.691Z,9.3
2019-05-16T08:30:07.586Z,9.2
2019-05-16T08:31:16.481Z,9.2
2019-05-16T08:32:25.834Z,9.3
2019-05-16T08:33:35.299Z,9.3
2019-05-16T08:34:44.726Z,9.3
2019-05-16T08:35:54.514Z,9.4
2019-05-16T08:38:13.941Z,9.3
2019-05-16T08:39:23.380Z,9.3
2019-05-16T08:40:32.731Z,9.3
2019-05-16T08:41:42.623Z,9.4
2019-05-16T08:42:52.137Z,9.4
2019-05-16T08:44:01.346Z,9.4
2019-05-16T08:46:20.651Z,9.4
2019-05-16T08:47:32.022Z,9.4
2019-05-16T08:48:41.933Z,9.5
2019-05-16T08:49:51.438Z,9.5
2019-05-16T08:50:57.208Z,9.5
2019-05-16T08:52:06.879Z,9.4
2019-05-16T08:53:15.955Z,9.5
2019-05-16T08:54:25.335Z,9.5
2019-05-16T08:59:03.796Z,9.4
2019-05-16T09:00:14.430Z,9.5
2019-05-16T09:02:36.346Z,9.4
2019-05-16T09:03:41.467Z,9.4
2019-05-16T09:04:53.339Z,9.5
2019-05-16T09:06:02.802Z,9.5
2019-05-16T09:07:12.338Z,9.3
2019-05-16T09:08:18.215Z,9.3
2019-05-16T09:09:41.429Z,9.4
2019-05-16T09:10:34.046Z,9.6
2019-05-16T09:11:04.746Z,9.5
2019-05-16T09:11:48.545Z,9.5
2019-05-16T09:12:57.166Z,9.6
2019-05-16T09:14:07.457Z,9.6
2019-05-16T09:15:16.895Z,9.5
2019-05-16T09:16:23.861Z,9.5
2019-05-16T09:17:33.202Z,9.5
2019-05-16T09:18:45.748Z,9.6
2019-05-16T09:19:52.011Z,9.6
2019-05-16T09:21:01.367Z,9.7
2019-05-16T09:22:11.019Z,9.7
2019-05-16T09:23:20.191Z,9.6
2019-05-16T09:24:29.686Z,9.6
2019-05-16T09:25:39.824Z,9.7
2019-05-16T09:26:48.316Z,9.6
2019-05-16T09:27:57.748Z,9.7
2019-05-16T09:29:08.365Z,9.6
2019-05-16T09:30:17.143Z,9.7
2019-05-16T09:31:27.435Z,9.8
2019-05-16T09:32:36.942Z,9.8
2019-05-16T09:33:47.198Z,9.7
2019-05-16T09:34:56.961Z,9.6
2019-05-16T09:36:03.509Z,9.5
2019-05-16T09:37:12.927Z,9.5
2019-05-16T09:38:23.692Z,9.5
2019-05-16T09:39:31.752Z,9.3
2019-05-16T09:40:41.294Z,9.5
2019-05-16T09:41:54.729Z,9.4
2019-05-16T09:43:00.025Z,9.3
2019-05-16T09:44:09.418Z,9.3
2019-05-16T09:45:19.137Z,9.4
2019-05-16T09:46:28.108Z,9.5
2019-05-16T09:47:38.861Z,9.5
2019-05-16T09:48:47.891Z,9.5
2019-05-16T09:49:57.918Z,9.6
2019-05-16T09:51:06.610Z,9.6
2019-05-16T09:52:16.514Z,9.7
2019-05-16T09:53:24.476Z,9.7
2019-05-16T09:54:34.288Z,9.6
2019-05-16T10:25:04.074Z,9.7
2019-05-16T10:27:12.499Z,9.8
2019-05-16T10:28:31.117Z,9.9
2019-05-16T10:28:33.319Z,9.9
2019-05-16T10:30:27.149Z,10.1
2019-05-16T10:31:42.248Z,10.1
2019-05-16T10:33:53.427Z,10
2019-05-16T10:35:02.785Z,10.1
2019-05-16T10:36:13.000Z,10.2
2019-05-16T10:37:22.243Z,10.3
2019-05-16T10:38:31.875Z,10.3
2019-05-16T10:39:41.084Z,10.4
2019-05-16T10:42:00.224Z,10.5
2019-05-16T10:43:09.735Z,10.5
2019-05-16T10:44:19.842Z,10.5
2019-05-16T10:46:37.861Z,10.6
2019-05-16T10:47:48.013Z,10.1
2019-05-16T10:48:57.731Z,10
2019-05-16T10:50:05.344Z,10.2
2019-05-16T10:51:16.927Z,10.2
2019-05-16T10:52:24.159Z,10.3
2019-05-16T10:54:00.388Z,10.3
2019-05-16T10:54:55.067Z,10.1
2019-05-16T10:55:52.653Z,10.1
2019-05-16T10:57:01.798Z,10.2
2019-05-16T10:58:11.276Z,10.2
2019-05-16T10:59:53.977Z,10.3
2019-05-16T11:00:57.486Z,10.3
2019-05-16T11:01:39.471Z,10.2
2019-05-16T11:02:48.933Z,10.4
2019-05-16T11:03:58.684Z,10.5
2019-05-16T11:06:25.039Z,10.7
2019-05-16T11:07:29.245Z,10.7
2019-05-16T11:08:37.129Z,10.9
2019-05-16T11:09:55.617Z,10.9
2019-05-16T11:10:57.018Z,11
2019-05-16T11:12:04.174Z,10.6
2019-05-16T11:13:13.598Z,10.2
2019-05-16T11:14:23.126Z,10.4
2019-05-16T11:15:32.467Z,10.4
2019-05-16T11:16:41.909Z,10.6
2019-05-16T11:17:51.292Z,10.9
2019-05-16T11:19:14.024Z,10.9
2019-05-16T11:20:10.260Z,11
2019-05-16T11:21:19.594Z,11
2019-05-16T11:22:29.866Z,10.9
2019-05-16T11:23:38.456Z,10.8
2019-05-16T11:24:48.069Z,10.7
2019-05-16T11:25:58.384Z,10.6
2019-05-16T11:27:07.464Z,10.6
2019-05-16T11:28:17.657Z,10.6
2019-05-16T11:29:25.678Z,10.7
2019-05-16T11:30:37.513Z,10.5
2019-05-16T11:31:46.547Z,10.7
2019-05-16T11:32:53.874Z,10.5
2019-05-16T11:34:03.324Z,10.6
2019-05-16T11:35:12.816Z,10.6
2019-05-16T11:36:22.172Z,10.5
2019-05-16T11:37:31.592Z,10.7
2019-05-16T11:38:41.099Z,10.4
2019-05-16T11:39:50.782Z,10.5
2019-05-16T11:40:59.947Z,10.7
2019-05-16T11:42:09.408Z,10.8
2019-05-16T11:43:21.659Z,10.6
2019-05-16T11:44:28.833Z,10.9
2019-05-16T11:45:37.638Z,10.9
2019-05-16T11:46:48.959Z,10.8
2019-05-16T11:47:56.755Z,10.6
2019-05-16T11:49:05.891Z,10.5
2019-05-16T11:50:17.522Z,10.5
2019-05-16T11:51:27.116Z,10.5
2019-05-16T11:52:34.209Z,10.5
2019-05-16T11:53:43.683Z,10.6
2019-05-16T11:54:53.249Z,10.8
2019-05-16T11:56:02.687Z,10.8
2019-05-16T11:57:11.953Z,10.8
2019-05-16T11:58:21.397Z,10.7
2019-05-16T11:59:30.752Z,10.9
2019-05-16T12:00:40.362Z,11.1
2019-05-16T12:01:49.719Z,11
2019-05-16T12:02:59.181Z,11.1
2019-05-16T12:04:08.897Z,10.8
2019-05-16T12:05:18.062Z,11.1
2019-05-16T12:06:27.366Z,11.2
2019-05-16T12:07:43.727Z,11.5
2019-05-16T12:08:46.713Z,11.6
2019-05-16T12:09:55.887Z,11.5
2019-05-16T12:11:06.879Z,11.3
2019-05-16T12:12:16.511Z,11.5
2019-05-16T12:13:28.382Z,11.4
2019-05-16T12:14:33.461Z,11.1
2019-05-16T12:15:42.913Z,11.2
2019-05-16T12:16:52.352Z,11
2019-05-16T12:18:04.900Z,10.8
2019-05-16T12:19:11.547Z,10.9
2019-05-16T12:20:20.703Z,11
2019-05-16T12:21:30.171Z,11
2019-05-16T12:22:39.597Z,11.1
2019-05-16T12:23:49.048Z,10.8
2019-05-16T12:24:58.513Z,11.1
2019-05-16T12:26:08.224Z,11.2
2019-05-16T12:27:17.423Z,11.2
2019-05-16T12:28:27.199Z,11.1
2019-05-16T12:29:37.251Z,11.2
2019-05-16T12:30:47.118Z,11
2019-05-16T12:31:59.504Z,11.3
2019-05-16T12:33:07.102Z,11.2
2019-05-16T12:34:14.059Z,11.1
2019-05-16T12:35:23.549Z,11
2019-05-16T12:36:32.968Z,10.9
2019-05-16T12:37:42.333Z,11.1
2019-05-16T12:38:51.943Z,11.1
2019-05-16T12:40:01.273Z,11.2
2019-05-16T12:41:10.708Z,11
2019-05-16T12:42:20.135Z,11.2
2019-05-16T12:43:44.532Z,11.2
2019-05-16T12:44:39.426Z,11.1
2019-05-16T12:45:48.484Z,11.2
2019-05-16T12:46:58.001Z,11.4
2019-05-16T12:48:07.437Z,11.1
2019-05-16T12:49:17.486Z,11.3
2019-05-16T12:50:28.497Z,11.2
2019-05-16T12:51:36.955Z,11.2
2019-05-16T12:52:47.326Z,11.1
2019-05-16T12:53:56.995Z,11.1
2019-05-16T12:55:06.586Z,11.2
2019-05-16T12:56:14.160Z,11.3
2019-05-16T12:57:27.503Z,11.2
2019-05-16T12:58:37.652Z,11.4
2019-05-16T12:59:49.190Z,11.1
2019-05-16T13:00:57.326Z,11.1
2019-05-16T13:02:00.756Z,11.2
2019-05-16T13:03:11.434Z,11.2
2019-05-16T13:04:19.636Z,11.2
2019-05-16T13:05:29.015Z,11.2
2019-05-16T13:06:38.607Z,11.2
2019-05-16T13:13:37.446Z,11.2
2019-05-16T13:14:44.590Z,11.3
2019-05-16T13:17:03.488Z,11.2
2019-05-16T13:18:12.929Z,11.1
2019-05-16T13:19:22.367Z,11.1
2019-05-16T13:20:31.961Z,11.1
2019-05-16T13:21:41.345Z,11.2
2019-05-16T13:24:00.133Z,11.3
2019-05-16T13:25:11.116Z,11.4
2019-05-16T13:26:19.051Z,11.5
2019-05-16T13:27:28.600Z,11.3
2019-05-16T13:28:38.091Z,11.2
2019-05-16T13:29:47.641Z,11.3
2019-05-16T13:30:58.190Z,11.2
2019-05-16T13:32:07.586Z,11.2
2019-05-16T13:33:17.691Z,11.3
2019-05-16T13:34:28.037Z,11.1
2019-05-16T13:35:36.948Z,11.1
2019-05-16T13:36:44.028Z,11.2
2019-05-16T13:37:53.485Z,11.3
2019-05-16T13:39:02.913Z,11.2
2019-05-16T13:40:12.364Z,11.1
2019-05-16T13:41:21.872Z,11.1
2019-05-16T13:42:31.301Z,11
2019-05-16T13:43:40.980Z,11.2
2019-05-16T13:44:50.129Z,11.2
2019-05-16T13:45:59.712Z,11.2
2019-05-16T13:47:09.017Z,11.2
2019-05-16T13:48:18.703Z,11.3
2019-05-16T13:49:27.983Z,11.1
2019-05-16T13:50:39.763Z,11.1
2019-05-16T13:51:46.808Z,11.1
2019-05-16T13:52:58.266Z,11.1
2019-05-16T13:54:07.017Z,11.2
2019-05-16T13:55:16.705Z,11.1
2019-05-16T13:56:27.083Z,11.2
2019-05-16T13:57:33.999Z,11.2
2019-05-16T13:58:43.706Z,11
2019-05-16T13:59:53.028Z,11.1
2019-05-16T14:01:02.319Z,11.3
2019-05-16T14:02:11.812Z,11.3
2019-05-16T14:03:21.219Z,11.5
2019-05-16T14:04:30.692Z,11.5
2019-05-16T14:05:40.110Z,11.4
2019-05-16T14:06:49.551Z,11.3
2019-05-16T14:07:59.048Z,11.3
2019-05-16T14:09:08.945Z,11.4
2019-05-16T14:10:18.540Z,11.4
2019-05-16T14:11:27.444Z,11.4
2019-05-16T14:12:36.955Z,11.4
2019-05-16T14:13:47.031Z,11.5
2019-05-16T14:14:55.703Z,11.4
2019-05-16T14:16:07.181Z,11.5
2019-05-16T14:17:17.178Z,11.6
2019-05-16T14:18:24.016Z,11.4
2019-05-16T14:19:33.458Z,11.4
2019-05-16T14:20:46.458Z,11.3
2019-05-16T14:21:53.505Z,11.3
2019-05-16T14:23:02.946Z,11.2
2019-05-16T14:24:12.475Z,11.2
2019-05-16T14:25:22.160Z,11.3
2019-05-16T14:26:31.311Z,11.3
2019-05-16T14:27:40.755Z,11.5
2019-05-16T14:28:50.283Z,11.4
2019-05-16T14:29:59.628Z,11.4
2019-05-16T14:32:19.852Z,11.5
2019-05-16T14:33:27.964Z,11.5
2019-05-16T14:34:38.387Z,11.4
2019-05-16T14:35:47.334Z,11.5
2019-05-16T14:36:57.827Z,11.5
2019-05-16T14:38:05.764Z,11.6
2019-05-16T14:39:18.886Z,11.6
2019-05-16T14:40:24.667Z,11.6
2019-05-16T14:41:36.928Z,11.5
2019-05-16T14:42:43.717Z,11.5
2019-05-16T14:43:53.254Z,11.6
2019-05-16T14:45:10.685Z,11.6
2019-05-16T14:46:11.939Z,11.6
2019-05-16T14:47:21.362Z,11.5
2019-05-16T14:48:30.806Z,11.3
2019-05-16T14:49:40.407Z,11.4
2019-05-16T14:50:49.703Z,11.3
2019-05-16T14:51:59.169Z,11.4
2019-05-16T14:53:08.612Z,11.5
2019-05-16T14:54:18.382Z,11.5
2019-05-16T14:55:27.631Z,11.5
2019-05-16T14:56:38.611Z,11.6
2019-05-16T14:57:47.266Z,11.6
2019-05-16T14:58:57.607Z,11.6
2019-05-16T15:00:07.356Z,11.7
2019-05-16T15:01:14.738Z,11.6
2019-05-16T15:02:27.231Z,11.6
2019-05-16T15:03:33.633Z,11.5
2019-05-16T15:04:43.062Z,11.6
2019-05-16T15:05:55.355Z,11.6
2019-05-16T15:07:02.010Z,11.6
2019-05-16T15:08:11.402Z,11.7
2019-05-16T15:09:20.847Z,11.7
2019-05-16T15:10:30.585Z,11.6
2019-05-16T15:11:40.026Z,11.7
2019-05-16T15:12:49.181Z,11.7
2019-05-16T15:13:58.778Z,11.7
2019-05-16T15:15:19.344Z,11.7
2019-05-16T15:17:27.493Z,11.7
2019-05-16T15:18:38.357Z,11.7
2019-05-16T15:19:46.592Z,11.8
2019-05-16T15:20:57.427Z,11.7
2019-05-16T15:22:07.597Z,11.7
2019-05-16T15:23:17.248Z,11.8
2019-05-16T15:24:23.711Z,11.8
2019-05-16T15:25:33.133Z,11.8
2019-05-16T15:26:42.597Z,11.8
2019-05-16T15:27:52.257Z,11.8
2019-05-16T15:29:01.651Z,11.9
2019-05-16T15:30:11.087Z,12
2019-05-16T15:31:20.488Z,11.8
2019-05-16T15:32:31.767Z,11.7
2019-05-16T15:33:39.304Z,11.7
2019-05-16T15:34:48.760Z,11.7
2019-05-16T15:35:58.313Z,11.7
2019-05-16T15:37:08.147Z,11.7
2019-05-16T15:38:17.170Z,11.8
2019-05-16T15:39:27.565Z,11.8
2019-05-16T15:40:37.565Z,11.7
2019-05-16T15:41:45.586Z,11.7
2019-05-16T15:42:58.677Z,11.7
2019-05-16T15:44:04.376Z,11.7
2019-05-16T15:45:13.890Z,11.8
2019-05-16T15:46:23.728Z,11.8
2019-05-16T15:47:32.747Z,11.9
2019-05-16T15:49:51.862Z,11.7
2019-05-16T15:51:01.166Z,11.7
2019-05-16T15:52:10.549Z,11.7
2019-05-16T15:53:20.009Z,11.7
2019-05-16T15:54:29.599Z,11.7
2019-05-16T15:55:38.959Z,11.7
2019-05-16T15:56:48.420Z,11.8
2019-05-16T15:57:57.824Z,11.8
2019-05-16T15:59:09.783Z,11.7
2019-05-16T16:00:18.119Z,11.7
2019-05-16T16:01:27.026Z,11.7
2019-05-16T16:02:36.697Z,11.7
2019-05-16T16:03:47.210Z,11.6
2019-05-16T16:04:56.970Z,11.7
2019-05-16T16:06:06.565Z,11.7
2019-05-16T16:07:13.463Z,11.6
2019-05-16T16:08:22.884Z,11.5
2019-05-16T16:09:32.311Z,11.6
2019-05-16T16:10:41.799Z,11.5
2019-05-16T16:11:51.302Z,11.4
2019-05-16T16:13:00.661Z,11.4
2019-05-16T16:14:10.154Z,11.4
2019-05-16T16:15:19.569Z,11.4
2019-05-16T16:16:30.220Z,11.4
2019-05-16T16:17:39.604Z,11.4
2019-05-16T16:18:48.952Z,11.4
2019-05-16T16:19:58.454Z,11.4
2019-05-16T16:22:17.847Z,11.3
2019-05-16T16:23:27.397Z,11.4
2019-05-16T16:24:36.236Z,11.4
2019-05-16T16:25:50.313Z,11.4
2019-05-16T16:26:56.540Z,11.3
2019-05-16T16:28:07.079Z,11.2
2019-05-16T16:29:13.924Z,11.3
2019-05-16T16:30:23.376Z,11.3
2019-05-16T16:31:32.803Z,11.3
2019-05-16T16:32:42.267Z,11.3
2019-05-16T16:33:51.878Z,11.3
2019-05-16T16:35:01.124Z,11.3
2019-05-16T16:36:10.562Z,11.2
2019-05-16T16:37:20.028Z,11.3
2019-05-16T16:38:29.458Z,11.3
2019-05-16T16:39:38.897Z,11.3
2019-05-16T16:40:48.320Z,11.3
2019-05-16T16:41:57.748Z,11.3
2019-05-16T16:43:07.897Z,11.3
2019-05-16T16:44:17.309Z,11.2
2019-05-16T16:45:27.226Z,11.3
2019-05-16T16:46:37.541Z,11.3
2019-05-16T16:47:46.837Z,11.3
2019-05-16T16:48:56.734Z,11.3
2019-05-16T16:50:03.796Z,11.3
2019-05-16T16:51:13.257Z,11.3
2019-05-16T16:52:22.817Z,11.3
2019-05-16T16:53:32.174Z,11.3
2019-05-16T16:54:41.551Z,11.2
2019-05-16T16:55:50.969Z,11.2